sensor_id;sensor_type;location;lat;lon;timestamp;temperature;humidity
21770;DHT22;11046;49.558;8.674;2023-04-01T00:02:48;9.50;98.20
21770;DHT22;11046;49.558;8.674;2023-04-01T00:05:49;9.60;98.20
21770;DHT22;11046;49.558;8.674;2023-04-01T00:08:50;9.50;98.20
21770;DHT22;11046;49.558;8.674;2023-04-01T00:11:51;9.50;98.20
21770;DHT22;11046;49.558;8.674;2023-04-01T00:14:51;9.50;98.20
21770;DHT22;11046;49.558;8.674;2023-04-01T00:17:52;9.50;98.30
21770;DHT22;11046;49.558;8.674;2023-04-01T00:20:53;9.60;98.20
21770;DHT22;11046;49.558;8.674;2023-04-01T00:23:53;9.50;98.20
21770;DHT22;11046;49.558;8.674;2023-04-01T00:26:55;9.50;98.30
21770;DHT22;11046;49.558;8.674;2023-04-01T00:29:55;9.50;98.30
21770;DHT22;11046;49.558;8.674;2023-04-01T00:32:56;9.50;98.30
21770;DHT22;11046;49.558;8.674;2023-04-01T00:36:09;9.40;98.30
21770;DHT22;11046;49.558;8.674;2023-04-01T00:39:10;9.50;98.20
21770;DHT22;11046;49.558;8.674;2023-04-01T00:42:10;9.50;98.20
21770;DHT22;11046;49.558;8.674;2023-04-01T00:45:33;9.40;98.20
21770;DHT22;11046;49.558;8.674;2023-04-01T00:48:36;9.50;98.20
21770;DHT22;11046;49.558;8.674;2023-04-01T00:51:39;9.50;98.20
21770;DHT22;11046;49.558;8.674;2023-04-01T00:54:44;9.50;98.10
21770;DHT22;11046;49.558;8.674;2023-04-01T00:57:46;9.50;98.10
21770;DHT22;11046;49.558;8.674;2023-04-01T01:00:49;9.50;98.10
21770;DHT22;11046;49.558;8.674;2023-04-01T01:03:51;9.50;98.10
21770;DHT22;11046;49.558;8.674;2023-04-01T01:07:00;9.50;98.10
21770;DHT22;11046;49.558;8.674;2023-04-01T01:10:26;9.50;98.10
21770;DHT22;11046;49.558;8.674;2023-04-01T01:13:36;9.40;98.10
21770;DHT22;11046;49.558;8.674;2023-04-01T01:16:44;9.50;98.10
21770;DHT22;11046;49.558;8.674;2023-04-01T01:19:57;9.40;98.00
21770;DHT22;11046;49.558;8.674;2023-04-01T01:23:17;9.40;98.10
21770;DHT22;11046;49.558;8.674;2023-04-01T01:33:20;9.40;98.10
21770;DHT22;11046;49.558;8.674;2023-04-01T01:36:29;9.40;98.00
21770;DHT22;11046;49.558;8.674;2023-04-01T01:39:34;9.40;98.00
21770;DHT22;11046;49.558;8.674;2023-04-01T01:42:38;9.40;97.90
21770;DHT22;11046;49.558;8.674;2023-04-01T01:45:44;9.40;97.80
21770;DHT22;11046;49.558;8.674;2023-04-01T01:48:47;9.40;97.80
21770;DHT22;11046;49.558;8.674;2023-04-01T01:51:48;9.40;97.80
21770;DHT22;11046;49.558;8.674;2023-04-01T01:54:54;9.50;97.70
21770;DHT22;11046;49.558;8.674;2023-04-01T01:58:16;9.40;97.70
21770;DHT22;11046;49.558;8.674;2023-04-01T02:01:24;9.40;97.70
21770;DHT22;11046;49.558;8.674;2023-04-01T02:04:27;9.50;97.60
21770;DHT22;11046;49.558;8.674;2023-04-01T02:07:31;9.40;97.50
21770;DHT22;11046;49.558;8.674;2023-04-01T02:10:36;9.50;97.50
21770;DHT22;11046;49.558;8.674;2023-04-01T02:13:40;9.50;97.50
21770;DHT22;11046;49.558;8.674;2023-04-01T02:19:56;9.50;97.50
21770;DHT22;11046;49.558;8.674;2023-04-01T02:22:59;9.50;97.40
21770;DHT22;11046;49.558;8.674;2023-04-01T02:26:00;9.60;97.40
21770;DHT22;11046;49.558;8.674;2023-04-01T02:29:03;9.50;97.40
21770;DHT22;11046;49.558;8.674;2023-04-01T02:32:05;9.50;97.40
21770;DHT22;11046;49.558;8.674;2023-04-01T02:35:10;9.50;97.50
21770;DHT22;11046;49.558;8.674;2023-04-01T02:38:11;9.50;97.50
21770;DHT22;11046;49.558;8.674;2023-04-01T02:41:12;9.50;97.40
21770;DHT22;11046;49.558;8.674;2023-04-01T02:44:14;9.50;97.40
21770;DHT22;11046;49.558;8.674;2023-04-01T02:47:15;9.50;97.40
21770;DHT22;11046;49.558;8.674;2023-04-01T02:50:16;9.50;97.70
21770;DHT22;11046;49.558;8.674;2023-04-01T02:53:17;9.50;97.40
21770;DHT22;11046;49.558;8.674;2023-04-01T02:56:17;9.50;97.40
21770;DHT22;11046;49.558;8.674;2023-04-01T02:59:19;9.50;97.40
21770;DHT22;11046;49.558;8.674;2023-04-01T03:02:20;9.50;97.40
21770;DHT22;11046;49.558;8.674;2023-04-01T03:05:21;9.50;97.40
21770;DHT22;11046;49.558;8.674;2023-04-01T03:08:21;9.50;97.40
21770;DHT22;11046;49.558;8.674;2023-04-01T03:11:22;9.50;97.40
21770;DHT22;11046;49.558;8.674;2023-04-01T03:14:23;9.50;97.40
21770;DHT22;11046;49.558;8.674;2023-04-01T03:17:23;9.50;97.40
21770;DHT22;11046;49.558;8.674;2023-04-01T03:20:24;9.50;97.40
21770;DHT22;11046;49.558;8.674;2023-04-01T03:23:25;9.40;97.40
21770;DHT22;11046;49.558;8.674;2023-04-01T03:26:25;9.50;97.40
21770;DHT22;11046;49.558;8.674;2023-04-01T03:29:27;9.40;97.50
21770;DHT22;11046;49.558;8.674;2023-04-01T03:32:28;9.40;97.50
21770;DHT22;11046;49.558;8.674;2023-04-01T03:35:28;9.40;97.50
21770;DHT22;11046;49.558;8.674;2023-04-01T03:38:29;9.40;97.50
21770;DHT22;11046;49.558;8.674;2023-04-01T03:41:30;9.40;97.60
21770;DHT22;11046;49.558;8.674;2023-04-01T03:44:34;9.40;97.60
21770;DHT22;11046;49.558;8.674;2023-04-01T03:47:35;9.30;97.60
21770;DHT22;11046;49.558;8.674;2023-04-01T03:50:36;9.40;97.60
21770;DHT22;11046;49.558;8.674;2023-04-01T03:53:36;9.30;97.60
21770;DHT22;11046;49.558;8.674;2023-04-01T03:56:39;9.30;97.60
21770;DHT22;11046;49.558;8.674;2023-04-01T03:59:40;9.30;97.60
21770;DHT22;11046;49.558;8.674;2023-04-01T04:02:40;9.30;97.60
21770;DHT22;11046;49.558;8.674;2023-04-01T04:05:49;9.30;97.70
21770;DHT22;11046;49.558;8.674;2023-04-01T04:08:51;9.30;97.70
21770;DHT22;11046;49.558;8.674;2023-04-01T04:11:52;9.30;97.70
21770;DHT22;11046;49.558;8.674;2023-04-01T04:14:53;9.30;97.60
21770;DHT22;11046;49.558;8.674;2023-04-01T04:17:54;9.30;97.60
21770;DHT22;11046;49.558;8.674;2023-04-01T04:20:55;9.30;97.60
21770;DHT22;11046;49.558;8.674;2023-04-01T04:23:56;9.40;97.60
21770;DHT22;11046;49.558;8.674;2023-04-01T04:26:56;9.40;97.50
21770;DHT22;11046;49.558;8.674;2023-04-01T04:29:57;9.40;97.50
21770;DHT22;11046;49.558;8.674;2023-04-01T04:32:58;9.40;97.50
21770;DHT22;11046;49.558;8.674;2023-04-01T04:36:00;9.40;97.50
21770;DHT22;11046;49.558;8.674;2023-04-01T04:39:01;9.50;97.40
21770;DHT22;11046;49.558;8.674;2023-04-01T04:42:03;9.50;97.30
21770;DHT22;11046;49.558;8.674;2023-04-01T04:45:04;9.50;97.30
21770;DHT22;11046;49.558;8.674;2023-04-01T04:48:13;9.50;97.30
21770;DHT22;11046;49.558;8.674;2023-04-01T04:51:19;9.40;97.30
21770;DHT22;11046;49.558;8.674;2023-04-01T04:54:20;9.40;97.30
21770;DHT22;11046;49.558;8.674;2023-04-01T04:57:28;9.40;97.30
21770;DHT22;11046;49.558;8.674;2023-04-01T05:00:29;9.40;97.30
21770;DHT22;11046;49.558;8.674;2023-04-01T05:03:34;9.40;97.40
21770;DHT22;11046;49.558;8.674;2023-04-01T05:06:35;9.40;97.40
21770;DHT22;11046;49.558;8.674;2023-04-01T05:09:36;9.40;97.40
21770;DHT22;11046;49.558;8.674;2023-04-01T05:12:37;9.30;97.50
21770;DHT22;11046;49.558;8.674;2023-04-01T05:15:41;9.30;97.50
21770;DHT22;11046;49.558;8.674;2023-04-01T05:18:41;9.30;97.60
21770;DHT22;11046;49.558;8.674;2023-04-01T05:21:42;9.20;97.60
21770;DHT22;11046;49.558;8.674;2023-04-01T05:24:42;9.20;97.70
21770;DHT22;11046;49.558;8.674;2023-04-01T05:27:43;9.20;97.80
21770;DHT22;11046;49.558;8.674;2023-04-01T05:30:43;9.10;97.80
21770;DHT22;11046;49.558;8.674;2023-04-01T05:33:55;9.10;98.00
21770;DHT22;11046;49.558;8.674;2023-04-01T05:36:56;9.10;98.00
21770;DHT22;11046;49.558;8.674;2023-04-01T05:39:56;9.10;98.00
21770;DHT22;11046;49.558;8.674;2023-04-01T05:42:59;9.00;98.00
21770;DHT22;11046;49.558;8.674;2023-04-01T05:46:00;9.00;98.20
21770;DHT22;11046;49.558;8.674;2023-04-01T05:49:16;9.00;98.20
21770;DHT22;11046;49.558;8.674;2023-04-01T05:52:17;9.00;98.30
21770;DHT22;11046;49.558;8.674;2023-04-01T05:55:17;9.00;98.30
21770;DHT22;11046;49.558;8.674;2023-04-01T05:58:18;9.00;98.30
21770;DHT22;11046;49.558;8.674;2023-04-01T06:01:21;9.10;98.30
21770;DHT22;11046;49.558;8.674;2023-04-01T06:04:22;9.10;98.30
21770;DHT22;11046;49.558;8.674;2023-04-01T06:07:23;9.10;98.30
21770;DHT22;11046;49.558;8.674;2023-04-01T06:10:37;9.20;98.30
21770;DHT22;11046;49.558;8.674;2023-04-01T06:20:43;9.20;98.20
21770;DHT22;11046;49.558;8.674;2023-04-01T06:24:16;9.30;98.30
21770;DHT22;11046;49.558;8.674;2023-04-01T06:27:55;9.20;98.30
21770;DHT22;11046;49.558;8.674;2023-04-01T06:56:17;9.30;98.20
21770;DHT22;11046;49.558;8.674;2023-04-01T06:59:42;9.40;98.20
21770;DHT22;11046;49.558;8.674;2023-04-01T07:02:56;9.30;98.20
21770;DHT22;11046;49.558;8.674;2023-04-01T07:06:04;9.30;98.20
21770;DHT22;11046;49.558;8.674;2023-04-01T07:09:18;9.30;98.20
21770;DHT22;11046;49.558;8.674;2023-04-01T07:13:31;9.30;98.20
21770;DHT22;11046;49.558;8.674;2023-04-01T07:16:53;9.30;98.30
21770;DHT22;11046;49.558;8.674;2023-04-01T07:20:20;9.30;98.30
21770;DHT22;11046;49.558;8.674;2023-04-01T07:23:28;9.30;98.30
21770;DHT22;11046;49.558;8.674;2023-04-01T07:27:01;9.30;98.30
21770;DHT22;11046;49.558;8.674;2023-04-01T07:30:17;9.40;98.30
21770;DHT22;11046;49.558;8.674;2023-04-01T07:33:25;9.50;98.30
21770;DHT22;11046;49.558;8.674;2023-04-01T07:36:36;9.40;98.20
21770;DHT22;11046;49.558;8.674;2023-04-01T07:39:54;9.50;98.20
21770;DHT22;11046;49.558;8.674;2023-04-01T07:43:25;9.50;98.30
21770;DHT22;11046;49.558;8.674;2023-04-01T07:50:30;9.50;98.40
21770;DHT22;11046;49.558;8.674;2023-04-01T08:00:24;9.40;98.70
21770;DHT22;11046;49.558;8.674;2023-04-01T08:03:52;9.40;98.70
21770;DHT22;11046;49.558;8.674;2023-04-01T08:07:17;9.40;98.80
21770;DHT22;11046;49.558;8.674;2023-04-01T08:14:03;9.30;99.00
21770;DHT22;11046;49.558;8.674;2023-04-01T08:17:43;9.20;99.20
21770;DHT22;11046;49.558;8.674;2023-04-01T08:21:12;9.30;99.30
21770;DHT22;11046;49.558;8.674;2023-04-01T08:27:33;9.20;99.40
21770;DHT22;11046;49.558;8.674;2023-04-01T08:34:08;9.30;99.60
21770;DHT22;11046;49.558;8.674;2023-04-01T08:37:20;9.30;99.50
21770;DHT22;11046;49.558;8.674;2023-04-01T08:40:57;9.30;99.60
21770;DHT22;11046;49.558;8.674;2023-04-01T08:51:47;9.10;99.90
21770;DHT22;11046;49.558;8.674;2023-04-01T08:58:54;9.20;99.90
21770;DHT22;11046;49.558;8.674;2023-04-01T09:26:39;9.10;99.90
21770;DHT22;11046;49.558;8.674;2023-04-01T09:34:13;9.20;99.90
21770;DHT22;11046;49.558;8.674;2023-04-01T09:41:16;9.10;99.90
21770;DHT22;11046;49.558;8.674;2023-04-01T09:45:00;9.10;99.90
21770;DHT22;11046;49.558;8.674;2023-04-01T09:55:18;9.20;99.90
21770;DHT22;11046;49.558;8.674;2023-04-01T09:58:58;9.30;99.90
21770;DHT22;11046;49.558;8.674;2023-04-01T10:19:56;9.60;99.90
21770;DHT22;11046;49.558;8.674;2023-04-01T10:23:21;9.60;99.90
21770;DHT22;11046;49.558;8.674;2023-04-01T10:30:28;9.70;99.90
21770;DHT22;11046;49.558;8.674;2023-04-01T10:33:49;9.60;99.90
21770;DHT22;11046;49.558;8.674;2023-04-01T10:37:23;9.70;99.90
21770;DHT22;11046;49.558;8.674;2023-04-01T10:44:57;9.70;99.90
21770;DHT22;11046;49.558;8.674;2023-04-01T10:48:18;9.70;99.90
21770;DHT22;11046;49.558;8.674;2023-04-01T11:02:55;9.70;99.90
21770;DHT22;11046;49.558;8.674;2023-04-01T11:06:51;9.70;99.90
21770;DHT22;11046;49.558;8.674;2023-04-01T11:31:20;9.80;99.90
21770;DHT22;11046;49.558;8.674;2023-04-01T11:37:59;9.80;99.90
21770;DHT22;11046;49.558;8.674;2023-04-01T11:41:34;9.80;99.90
21770;DHT22;11046;49.558;8.674;2023-04-01T11:45:25;9.90;99.90
21770;DHT22;11046;49.558;8.674;2023-04-01T11:48:41;9.90;99.90
21770;DHT22;11046;49.558;8.674;2023-04-01T11:52:29;10.00;99.90
21770;DHT22;11046;49.558;8.674;2023-04-01T11:55:50;10.00;99.90
21770;DHT22;11046;49.558;8.674;2023-04-01T12:02:48;10.10;99.90
21770;DHT22;11046;49.558;8.674;2023-04-01T12:09:31;10.10;99.90
21770;DHT22;11046;49.558;8.674;2023-04-01T12:13:02;10.10;99.90
21770;DHT22;11046;49.558;8.674;2023-04-01T12:26:52;10.10;99.90
21770;DHT22;11046;49.558;8.674;2023-04-01T12:30:21;10.10;99.90
21770;DHT22;11046;49.558;8.674;2023-04-01T12:43:26;10.10;99.90
21770;DHT22;11046;49.558;8.674;2023-04-01T12:46:56;10.10;99.90
21770;DHT22;11046;49.558;8.674;2023-04-01T12:57:49;10.20;99.90
21770;DHT22;11046;49.558;8.674;2023-04-01T13:08:17;10.10;99.90
21770;DHT22;11046;49.558;8.674;2023-04-01T13:24:50;10.30;99.90
21770;DHT22;11046;49.558;8.674;2023-04-01T13:31:25;10.20;99.90
21770;DHT22;11046;49.558;8.674;2023-04-01T13:34:36;10.30;99.90
21770;DHT22;11046;49.558;8.674;2023-04-01T13:48:58;10.10;99.90
21770;DHT22;11046;49.558;8.674;2023-04-01T13:52:18;10.20;99.90
21770;DHT22;11046;49.558;8.674;2023-04-01T14:23:08;10.40;99.90
21770;DHT22;11046;49.558;8.674;2023-04-01T14:51:03;10.20;99.90
21770;DHT22;11046;49.558;8.674;2023-04-01T14:53:40;10.20;99.90
21770;DHT22;11046;49.558;8.674;2023-04-01T14:57:12;10.20;99.90
21770;DHT22;11046;49.558;8.674;2023-04-01T15:00:15;10.20;99.90
21770;DHT22;11046;49.558;8.674;2023-04-01T15:03:22;10.30;99.90
21770;DHT22;11046;49.558;8.674;2023-04-01T15:17:13;10.30;99.90
21770;DHT22;11046;49.558;8.674;2023-04-01T15:20:08;10.30;99.90
21770;DHT22;11046;49.558;8.674;2023-04-01T15:23:25;10.30;99.90
21770;DHT22;11046;49.558;8.674;2023-04-01T15:26:52;10.30;99.90
21770;DHT22;11046;49.558;8.674;2023-04-01T15:30:12;10.30;99.90
21770;DHT22;11046;49.558;8.674;2023-04-01T15:43:40;10.20;99.90
21770;DHT22;11046;49.558;8.674;2023-04-01T15:46:50;10.10;99.90
21770;DHT22;11046;49.558;8.674;2023-04-01T15:50:23;10.00;99.90
21770;DHT22;11046;49.558;8.674;2023-04-01T15:57:02;10.10;99.90
21770;DHT22;11046;49.558;8.674;2023-04-01T16:17:46;10.00;99.90
21770;DHT22;11046;49.558;8.674;2023-04-01T16:24:17;9.90;99.90
21770;DHT22;11046;49.558;8.674;2023-04-01T16:27:36;9.90;99.90
21770;DHT22;11046;49.558;8.674;2023-04-01T16:31:09;9.90;99.90
21770;DHT22;11046;49.558;8.674;2023-04-01T16:34:43;9.90;99.90
21770;DHT22;11046;49.558;8.674;2023-04-01T16:44:25;9.90;99.90
21770;DHT22;11046;49.558;8.674;2023-04-01T16:47:40;9.90;99.90
21770;DHT22;11046;49.558;8.674;2023-04-01T16:50:58;9.90;99.90
21770;DHT22;11046;49.558;8.674;2023-04-01T16:58:01;9.90;99.90
21770;DHT22;11046;49.558;8.674;2023-04-01T17:01:08;9.80;99.90
21770;DHT22;11046;49.558;8.674;2023-04-01T17:04:37;9.80;99.90
21770;DHT22;11046;49.558;8.674;2023-04-01T17:08:04;9.80;99.90
21770;DHT22;11046;49.558;8.674;2023-04-01T17:11:24;9.70;99.90
21770;DHT22;11046;49.558;8.674;2023-04-01T17:14:54;9.70;99.90
21770;DHT22;11046;49.558;8.674;2023-04-01T17:24:38;9.80;99.90
21770;DHT22;11046;49.558;8.674;2023-04-01T17:41:13;9.90;99.90
21770;DHT22;11046;49.558;8.674;2023-04-01T17:48:32;9.90;99.90
21770;DHT22;11046;49.558;8.674;2023-04-01T17:51:40;9.80;99.90
21770;DHT22;11046;49.558;8.674;2023-04-01T17:55:15;9.80;99.90
21770;DHT22;11046;49.558;8.674;2023-04-01T18:08:15;10.00;99.90
21770;DHT22;11046;49.558;8.674;2023-04-01T18:24:42;9.90;99.90
21770;DHT22;11046;49.558;8.674;2023-04-01T18:28:11;9.90;99.90
21770;DHT22;11046;49.558;8.674;2023-04-01T18:31:24;9.90;99.90
